Weather at Halesland Glider Field

Public forecast

Using degrees Celsius for public forecast. Weather courtesy of forecast.io.

Closest aviation weather report (METAR) to Halesland Glider Field

Closest report is Bristol Airport, 7.3 nm (13.5 km) N. Retrieved 2021/09/25 20:20 UTC (23 minutes ago):

EGGD 252020Z 18008KT 9999 FEW006 BKN024 16/15 Q1012

Closest aviation forecast (TAF) to Halesland Glider Field

Forecast is more than 6 hours old.

Closest forecast is Bristol Airport, 7.3 nm (13.5 km) N. Retrieved 2021/09/25 12:00 UTC (9 hours ago):

TAF EGGD 251052Z 2512/2612 17005KT 9999 FEW008 BKN022 TEMPO 2512/2610 BKN012 PROB30 TEMPO 2512/2601 BKN008 PROB40 TEMPO 2601/2608 8000 BKN007